Date,TemperatureHighF,TemperatureAvgF,TemperatureLowF,DewpointHighF,DewpointAvgF,DewpointLowF,HumidityHigh,HumidityAvg,HumidityLow,PressureMaxIn,PressureMinIn,WindSpeedMaxMPH,WindSpeedAvgMPH,GustSpeedMaxMPH,PrecipitationSumIn
2013-4-1,62.2,43.7,30.0,34.1,29.4,22.6,85,60,36,30.45,30.31,6,1,8,0.01
2013-4-2,43.9,38.4,36.0,36.8,34.9,32.6,99,88,67,30.42,30.36,4,1,4,0.13
2013-4-3,76.5,48.7,36.3,44.2,34.6,24.4,99,67,21,30.43,30.34,5,1,7,0.01
2013-4-4,78.8,55.7,32.4,40.7,28.9,20.7,89,46,16,30.45,30.31,7,2,8,0.00
2013-4-5,86.7,61.5,46.4,33.1,26.0,17.0,54,32,13,30.31,30.05,14,2,14,0.00
2013-4-6,80.8,55.8,40.3,32.3,23.2,17.2,62,34,15,30.27,30.17,7,2,13,0.00
2013-4-7,76.3,57.5,38.5,34.2,26.9,19.6,80,38,17,30.20,30.04,11,2,14,0.00
2013-4-8,70.9,47.2,25.7,36.4,30.3,24.5,95,57,28,30.15,29.80,11,2,14,0.00
2013-4-9,25.3,18.7,11.3,23.7,12.7,6.9,94,77,60,30.44,30.15,0,0,0,0.00
2013-4-10,36.0,20.9,6.3,17.2,9.9,2.1,85,64,38,30.42,30.16,4,1,7,0.08
2013-4-11,63.3,39.3,17.8,39.9,25.8,12.4,86,63,31,30.23,30.04,11,2,12,0.01
2013-4-12,69.3,44.0,27.5,36.4,29.9,22.1,88,62,21,30.30,30.18,8,2,14,0.00
2013-4-13,78.4,51.9,28.0,38.0,26.2,14.0,97,51,14,30.27,29.79,11,2,11,0.01
2013-4-14,58.8,44.7,35.1,40.6,19.5,6.3,96,45,16,30.09,29.89,10,3,18,0.18
2013-4-15,38.7,29.4,23.0,28.4,21.9,9.6,91,77,32,30.32,30.07,7,1,8,0.00
2013-4-16,37.6,29.5,23.0,30.1,25.9,20.8,96,87,69,30.32,30.14,4,0,5,0.04
2013-4-17,36.3,27.8,19.6,30.4,25.2,16.1,99,90,79,30.43,30.22,8,0,8,0.01
2013-4-18,46.8,29.1,8.8,27.6,12.7,6.0,91,57,24,30.43,30.36,6,1,7,0.12
2013-4-19,66.7,45.5,21.7,25.6,18.5,10.3,68,38,22,30.40,30.25,7,2,10,0.00
2013-4-20,65.5,48.9,30.7,35.2,29.1,21.6,81,50,28,30.32,30.22,7,1,8,0.00
2013-4-21,68.7,50.8,29.7,41.3,27.4,13.2,94,51,18,30.37,30.29,7,2,9,0.00
2013-4-22,59.7,34.7,23.2,41.4,28.5,21.5,93,79,48,30.56,30.22,11,1,13,0.01
2013-4-23,51.4,29.7,20.5,23.4,18.6,12.1,93,68,31,30.54,30.40,3,0,4,0.11
2013-4-24,72.5,43.2,20.5,28.8,18.0,6.8,83,45,15,30.49,30.40,4,1,7,0.00
2013-4-25,75.9,50.8,26.4,30.7,19.7,10.1,71,38,13,30.45,30.23,4,1,7,0.00
2013-4-26,80.2,56.6,35.6,28.8,20.4,9.7,67,33,12,30.51,30.32,9,2,9,0.00
2013-4-27,88.9,61.2,34.2,30.9,20.4,11.0,64,30,11,30.51,30.34,5,1,8,0.00
2013-4-28,92.7,67.0,38.1,32.8,26.5,19.0,58,29,14,30.36,30.19,8,1,9,0.00
2013-4-29,89.4,69.2,50.2,37.2,28.1,15.8,52,28,14,30.28,30.00,8,2,12,0.00
2013-4-30,61.9,53.3,37.9,39.8,33.2,20.5,94,51,24,30.35,30.01,11,2,19,0.02